Ramona, Texas
Current Conditions -  °F | °C
As of 2:35 AM on Friday 19 Dec 2014 (Local Time) from KT65 Reporting Station
Overcast Overcast  
Wind Chill: 63°   Ceiling: 5000
Heat Index: 63°   Visibility: 7mi
Dew Point: 61°   Wind: 3mph
Humidity: 93%   Direction: 290°WNW
Pressure: 29.95"   Gusts: NA
Location:  26.1701°N, 97.9943°W
Report Text: KT65 190835Z AUTO 29003KT 7SM SCT013 BKN050 OVC075 17/16 A2995 RMK AO2 T01740163
Loading
Personal Weather Stations






























Interactive Weather Map New forecast layout! Learn more

10-Day Weather Forecast

Advertisements
Track Severe Weather on mobile